createdAt,value
2022-12-26T00:01:27.740Z,10.15
2022-12-26T00:03:56.629Z,10.20
2022-12-26T00:06:25.785Z,10.40
2022-12-26T00:08:53.796Z,10.24
2022-12-26T00:11:23.580Z,10.27
2022-12-26T00:13:54.626Z,10.33
2022-12-26T00:16:23.262Z,10.32
2022-12-26T00:18:51.381Z,10.33
2022-12-26T00:21:19.912Z,10.50
2022-12-26T00:23:48.023Z,10.18
2022-12-26T00:26:19.178Z,10.30
2022-12-26T00:28:48.932Z,10.33
2022-12-26T00:31:20.609Z,10.16
2022-12-26T00:33:48.669Z,10.24
2022-12-26T00:36:18.222Z,10.00
2022-12-26T00:38:46.440Z,9.90
2022-12-26T00:41:15.060Z,10.13
2022-12-26T00:43:43.047Z,10.13
2022-12-26T00:46:12.420Z,10.11
2022-12-26T00:48:43.040Z,10.20
2022-12-26T00:51:11.186Z,9.84
2022-12-26T00:53:39.262Z,9.71
2022-12-26T00:56:07.810Z,9.92
2022-12-26T00:58:36.230Z,9.85
2022-12-26T01:01:08.310Z,9.62
2022-12-26T01:03:37.806Z,10.03
2022-12-26T01:06:08.239Z,9.96
2022-12-26T01:08:36.347Z,9.69
2022-12-26T01:11:05.758Z,9.79
2022-12-26T01:13:34.028Z,9.78
2022-12-26T01:16:02.167Z,9.49
2022-12-26T01:18:30.490Z,9.48
2022-12-26T01:21:02.630Z,9.78
2022-12-26T01:23:31.124Z,9.85
2022-12-26T01:26:16.695Z,9.71
2022-12-26T01:28:48.341Z,9.56
2022-12-26T01:31:16.823Z,9.49
2022-12-26T01:33:44.895Z,9.90
2022-12-26T01:36:14.489Z,9.50
2022-12-26T01:38:42.547Z,10.11
2022-12-26T01:41:20.889Z,10.21
2022-12-26T01:43:50.752Z,9.91
2022-12-26T01:46:20.679Z,9.65
2022-12-26T01:48:51.792Z,9.68
2022-12-26T01:51:22.783Z,9.65
2022-12-26T01:53:53.272Z,9.58
2022-12-26T01:56:22.843Z,9.94
2022-12-26T01:58:52.118Z,9.38
2022-12-26T02:01:21.413Z,9.18
2022-12-26T02:04:07.236Z,9.60
2022-12-26T02:06:37.094Z,9.46
2022-12-26T02:09:06.504Z,9.35
2022-12-26T02:11:37.478Z,9.05
2022-12-26T02:14:06.741Z,9.17
2022-12-26T02:16:35.268Z,9.04
2022-12-26T02:19:07.721Z,9.16
2022-12-26T02:21:51.293Z,8.98
2022-12-26T02:24:30.099Z,9.41
2022-12-26T02:27:12.036Z,9.24
2022-12-26T02:30:02.574Z,9.65
2022-12-26T02:32:41.288Z,9.33
2022-12-26T02:35:14.113Z,9.34
2022-12-26T02:37:50.559Z,9.30
2022-12-26T02:40:28.859Z,9.19
2022-12-26T02:42:59.344Z,9.27
2022-12-26T02:45:52.555Z,9.30
2022-12-26T02:48:28.355Z,9.32
2022-12-26T02:51:19.788Z,9.32
2022-12-26T02:54:11.614Z,8.88
2022-12-26T02:57:00.628Z,8.86
2022-12-26T02:59:55.536Z,9.32
2022-12-26T03:02:45.553Z,9.19
2022-12-26T03:05:35.442Z,9.06
2022-12-26T03:08:22.131Z,9.00
2022-12-26T03:11:09.036Z,9.10
2022-12-26T03:13:38.028Z,9.08
2022-12-26T03:16:26.959Z,9.29
2022-12-26T03:18:58.483Z,9.24
2022-12-26T03:21:32.560Z,9.49
2022-12-26T03:24:00.766Z,9.42
2022-12-26T03:26:39.913Z,9.37
2022-12-26T03:29:26.962Z,9.23
2022-12-26T03:31:54.981Z,9.40
2022-12-26T03:34:22.985Z,9.38
2022-12-26T03:37:07.061Z,9.72
2022-12-26T03:39:57.550Z,9.66
2022-12-26T03:42:49.636Z,9.86
2022-12-26T03:45:45.824Z,9.69
2022-12-26T03:48:36.135Z,9.94
2022-12-26T03:51:25.889Z,9.64
2022-12-26T03:54:15.971Z,9.87
2022-12-26T03:57:05.022Z,9.88
2022-12-26T03:59:55.200Z,9.81
2022-12-26T04:02:41.311Z,9.61
2022-12-26T04:05:28.653Z,9.61
2022-12-26T04:08:18.846Z,9.82
2022-12-26T04:11:08.880Z,10.13
2022-12-26T04:13:58.051Z,9.83
2022-12-26T04:16:49.068Z,9.62
2022-12-26T04:19:27.278Z,9.77
2022-12-26T04:22:17.865Z,9.69
2022-12-26T04:25:11.518Z,9.45
2022-12-26T04:27:58.623Z,9.59
2022-12-26T04:30:44.430Z,9.85
2022-12-26T04:33:36.907Z,9.59
2022-12-26T04:36:26.617Z,9.45
2022-12-26T04:39:14.480Z,9.70
2022-12-26T04:42:01.278Z,9.87
2022-12-26T04:44:31.555Z,10.04
2022-12-26T04:46:59.663Z,10.12
2022-12-26T04:49:45.341Z,9.95
2022-12-26T04:52:14.600Z,10.07
2022-12-26T04:54:43.066Z,10.33
2022-12-26T04:57:13.333Z,10.24
2022-12-26T04:59:42.637Z,10.08
2022-12-26T05:02:28.113Z,10.07
2022-12-26T05:05:13.026Z,10.54
2022-12-26T05:07:58.498Z,10.19
2022-12-26T05:10:27.597Z,9.96
2022-12-26T05:12:55.771Z,10.08
2022-12-26T05:15:25.280Z,10.41
2022-12-26T05:18:10.926Z,10.30
2022-12-26T05:20:58.038Z,10.48
2022-12-26T05:23:45.310Z,10.30
2022-12-26T05:26:33.139Z,10.36
2022-12-26T05:29:01.315Z,10.25
2022-12-26T05:31:35.517Z,10.30
2022-12-26T05:34:07.002Z,10.05
2022-12-26T05:36:38.324Z,10.12
2022-12-26T05:39:09.170Z,10.07
2022-12-26T05:41:37.642Z,9.95
2022-12-26T05:44:06.321Z,10.00
2022-12-26T05:46:36.403Z,10.15
2022-12-26T05:49:07.031Z,10.15
2022-12-26T05:51:35.385Z,9.98
2022-12-26T05:54:03.594Z,10.28
2022-12-26T05:56:31.570Z,10.24
2022-12-26T05:59:00.454Z,10.41
2022-12-26T06:01:29.269Z,10.40
2022-12-26T06:03:59.896Z,10.81
2022-12-26T06:06:28.335Z,10.81
2022-12-26T06:08:57.206Z,10.67
2022-12-26T06:11:26.616Z,10.87
2022-12-26T06:13:55.194Z,10.99
2022-12-26T06:16:23.560Z,10.82
2022-12-26T06:18:51.670Z,10.90
2022-12-26T06:21:21.625Z,10.96
2022-12-26T06:23:50.182Z,10.86
2022-12-26T06:26:18.240Z,10.80
2022-12-26T06:28:47.541Z,10.79
2022-12-26T06:31:17.040Z,10.75
2022-12-26T06:33:45.412Z,10.71
2022-12-26T06:36:14.678Z,10.91
2022-12-26T06:38:44.496Z,10.95
2022-12-26T06:41:13.640Z,10.64
2022-12-26T06:43:41.749Z,10.66
2022-12-26T06:46:13.193Z,10.59
2022-12-26T06:48:41.640Z,10.38
2022-12-26T06:51:12.489Z,10.30
2022-12-26T06:53:40.685Z,10.55
2022-12-26T06:56:11.338Z,10.49
2022-12-26T06:58:39.653Z,10.61
2022-12-26T07:01:08.648Z,10.65
2022-12-26T07:03:36.992Z,10.92
2022-12-26T07:06:06.096Z,10.89
2022-12-26T07:08:34.462Z,10.78
2022-12-26T07:11:04.959Z,10.43
2022-12-26T07:13:34.258Z,10.15
2022-12-26T07:16:02.265Z,10.09
2022-12-26T07:18:30.267Z,10.28
2022-12-26T07:20:58.305Z,9.91
2022-12-26T07:23:26.276Z,9.58
2022-12-26T07:25:54.287Z,9.50
2022-12-26T07:28:24.692Z,9.64
2022-12-26T07:30:54.404Z,9.40
2022-12-26T07:33:22.501Z,9.57
2022-12-26T07:35:50.723Z,9.39
2022-12-26T07:38:18.933Z,9.54
2022-12-26T07:40:46.957Z,9.83
2022-12-26T07:43:14.961Z,9.84
2022-12-26T07:45:45.780Z,9.84
2022-12-26T07:48:15.561Z,9.63
2022-12-26T07:50:47.072Z,9.84
2022-12-26T07:53:15.522Z,9.92
2022-12-26T07:55:43.475Z,10.22
2022-12-26T07:58:11.509Z,10.30
2022-12-26T08:00:39.769Z,10.24
2022-12-26T08:03:10.378Z,10.07
2022-12-26T08:05:45.291Z,10.46
2022-12-26T08:08:13.345Z,10.80
2022-12-26T08:10:42.442Z,10.68
2022-12-26T08:13:11.693Z,11.03
2022-12-26T08:15:39.706Z,10.99
2022-12-26T08:18:08.036Z,9.88
2022-12-26T08:20:37.674Z,10.01
2022-12-26T08:23:07.379Z,10.35
2022-12-26T08:25:37.897Z,10.81
2022-12-26T08:28:06.340Z,11.29
2022-12-26T08:30:39.513Z,11.25
2022-12-26T08:33:07.972Z,11.11
2022-12-26T08:35:36.123Z,10.87
2022-12-26T08:38:04.769Z,10.95
2022-12-26T08:40:43.074Z,11.02
2022-12-26T08:43:30.169Z,10.94
2022-12-26T08:46:03.041Z,11.11
2022-12-26T08:48:31.324Z,10.91
2022-12-26T08:51:00.576Z,11.11
2022-12-26T08:53:30.082Z,11.17
2022-12-26T08:55:59.548Z,11.13
2022-12-26T08:58:27.681Z,10.78
2022-12-26T09:00:56.231Z,10.67
2022-12-26T09:03:24.675Z,10.68
2022-12-26T09:05:54.895Z,10.87
2022-12-26T09:08:22.932Z,10.94
2022-12-26T09:10:50.966Z,10.62
2022-12-26T09:13:20.903Z,10.85
2022-12-26T09:15:48.904Z,10.73
2022-12-26T09:18:16.949Z,10.52
2022-12-26T09:20:45.038Z,10.47
2022-12-26T09:23:15.364Z,10.48
2022-12-26T09:25:43.447Z,10.60
2022-12-26T09:28:11.525Z,10.61
2022-12-26T09:30:40.986Z,10.62
2022-12-26T09:33:09.371Z,10.48
2022-12-26T09:35:40.837Z,10.40
2022-12-26T09:38:08.932Z,10.47
2022-12-26T09:40:44.949Z,10.60
2022-12-26T09:43:20.787Z,10.71
2022-12-26T09:45:55.154Z,10.54
2022-12-26T09:48:28.128Z,10.40
2022-12-26T09:50:58.223Z,10.41
2022-12-26T09:53:30.306Z,10.41
2022-12-26T09:55:59.912Z,10.48
2022-12-26T09:58:30.355Z,10.57
2022-12-26T10:01:04.124Z,10.42
2022-12-26T10:03:37.758Z,10.46
2022-12-26T10:06:11.373Z,10.49
2022-12-26T10:08:47.605Z,10.42
2022-12-26T10:11:19.435Z,10.44
2022-12-26T10:13:52.291Z,10.46
2022-12-26T10:16:25.556Z,10.60
2022-12-26T10:18:58.240Z,10.43
2022-12-26T10:21:34.516Z,10.52
2022-12-26T10:24:03.976Z,10.37
2022-12-26T10:26:33.993Z,10.55
2022-12-26T10:29:03.741Z,10.54
2022-12-26T10:31:36.260Z,10.49
2022-12-26T10:34:08.404Z,10.41
2022-12-26T10:36:42.384Z,10.40
2022-12-26T10:39:14.451Z,10.27
2022-12-26T10:41:46.077Z,10.21
2022-12-26T10:44:15.723Z,10.37
2022-12-26T10:46:57.918Z,10.16
2022-12-26T10:49:27.402Z,10.11
2022-12-26T10:51:56.410Z,10.23
2022-12-26T10:54:24.915Z,10.29
2022-12-26T10:56:53.750Z,10.08
2022-12-26T10:59:23.992Z,10.36
2022-12-26T11:01:52.223Z,10.39
2022-12-26T11:05:10.043Z,10.28
2022-12-26T11:07:13.946Z,10.16
2022-12-26T11:09:43.909Z,10.28
2022-12-26T11:12:20.783Z,10.48
2022-12-26T11:14:49.265Z,10.53
2022-12-26T11:17:25.483Z,10.86
2022-12-26T11:20:11.145Z,10.61
2022-12-26T11:22:39.719Z,10.81
2022-12-26T11:25:18.628Z,10.58
2022-12-26T11:27:47.433Z,10.98
2022-12-26T11:30:20.175Z,11.04
2022-12-26T11:32:49.302Z,11.22
2022-12-26T11:35:22.495Z,10.94
2022-12-26T11:37:54.313Z,11.05
2022-12-26T11:40:24.045Z,11.05
2022-12-26T11:42:54.599Z,11.21
2022-12-26T11:45:23.531Z,11.25
2022-12-26T11:47:51.837Z,10.88
2022-12-26T11:50:22.421Z,11.24
2022-12-26T11:52:52.654Z,10.99
2022-12-26T11:55:26.680Z,10.79
2022-12-26T11:57:59.061Z,11.23
2022-12-26T12:00:27.989Z,11.15
2022-12-26T12:02:56.135Z,10.97
2022-12-26T12:05:36.201Z,11.28
2022-12-26T12:08:10.369Z,11.38
2022-12-26T12:10:48.662Z,11.44
2022-12-26T12:13:22.549Z,11.69
2022-12-26T12:15:53.845Z,11.70
2022-12-26T12:18:30.618Z,11.58
2022-12-26T12:21:07.730Z,11.60
2022-12-26T12:23:44.361Z,11.75
2022-12-26T12:26:16.225Z,11.61
2022-12-26T12:29:00.187Z,11.36
2022-12-26T12:31:33.549Z,11.43
2022-12-26T12:34:07.189Z,11.20
2022-12-26T12:36:39.933Z,11.11
2022-12-26T12:39:12.232Z,11.31
2022-12-26T12:41:52.925Z,11.17
2022-12-26T12:44:23.317Z,10.94
2022-12-26T12:46:56.138Z,11.18
2022-12-26T12:49:31.741Z,11.10
2022-12-26T12:52:09.139Z,11.11
2022-12-26T12:54:47.124Z,11.04
2022-12-26T12:57:20.934Z,11.08
2022-12-26T12:59:57.074Z,11.42
2022-12-26T13:02:31.037Z,11.16
2022-12-26T13:05:05.770Z,11.32
2022-12-26T13:07:39.486Z,11.13
2022-12-26T13:10:17.103Z,11.26
2022-12-26T13:12:46.948Z,11.16
2022-12-26T13:15:22.016Z,11.16
2022-12-26T13:17:53.252Z,11.18
2022-12-26T13:20:24.711Z,11.12
2022-12-26T13:23:13.816Z,11.41
2022-12-26T13:25:44.584Z,11.49
2022-12-26T13:28:16.924Z,11.30
2022-12-26T13:30:45.095Z,11.68
2022-12-26T13:33:15.852Z,11.40
2022-12-26T13:35:54.677Z,11.38
2022-12-26T13:38:25.127Z,11.44
2022-12-26T13:41:17.439Z,11.29
2022-12-26T13:43:59.409Z,11.37
2022-12-26T13:46:54.103Z,11.20
2022-12-26T13:49:30.734Z,11.44
2022-12-26T13:52:14.693Z,11.47
2022-12-26T13:55:14.180Z,11.44
2022-12-26T13:57:45.726Z,11.31
2022-12-26T14:00:16.381Z,11.48
2022-12-26T14:03:18.055Z,11.53
2022-12-26T14:05:55.984Z,11.81
2022-12-26T14:08:31.335Z,11.69
2022-12-26T14:11:04.724Z,11.77
2022-12-26T14:13:42.980Z,11.78
2022-12-26T14:16:15.351Z,11.36
2022-12-26T14:18:51.231Z,11.53
2022-12-26T14:21:30.011Z,11.42
2022-12-26T14:24:02.364Z,11.67
2022-12-26T14:26:39.781Z,11.72
2022-12-26T14:29:17.220Z,11.46
2022-12-26T14:31:51.921Z,11.30
2022-12-26T14:34:26.436Z,11.55
2022-12-26T14:37:00.413Z,11.37
2022-12-26T14:39:33.395Z,11.34
2022-12-26T14:42:36.005Z,11.44
2022-12-26T14:45:05.878Z,11.51
2022-12-26T14:47:38.638Z,11.50
2022-12-26T14:50:25.396Z,11.27
2022-12-26T14:52:53.504Z,11.30
2022-12-26T14:55:42.369Z,11.18
2022-12-26T14:58:30.892Z,11.31
2022-12-26T15:01:19.270Z,11.56
2022-12-26T15:03:52.115Z,11.55
2022-12-26T15:06:42.480Z,11.35
2022-12-26T15:09:14.629Z,11.38
2022-12-26T15:11:55.807Z,11.44
2022-12-26T15:14:42.725Z,11.36
2022-12-26T15:17:19.773Z,11.77
2022-12-26T15:20:03.817Z,11.45
2022-12-26T15:23:02.741Z,11.12
2022-12-26T15:26:00.957Z,11.32
2022-12-26T15:28:42.492Z,11.13
2022-12-26T15:31:18.120Z,11.26
2022-12-26T15:33:51.226Z,11.16
2022-12-26T15:36:24.136Z,11.51
2022-12-26T15:38:56.733Z,10.93
2022-12-26T15:41:31.253Z,10.97
2022-12-26T15:44:04.618Z,11.35
2022-12-26T15:46:34.992Z,10.93
2022-12-26T15:49:26.263Z,11.27
2022-12-26T15:52:00.966Z,11.09
2022-12-26T15:54:43.837Z,11.08
2022-12-26T15:57:16.034Z,11.13
2022-12-26T16:00:00.505Z,11.15
2022-12-26T16:02:34.284Z,10.93
2022-12-26T16:05:12.614Z,10.89
2022-12-26T16:07:42.369Z,10.83
2022-12-26T16:10:27.583Z,10.86
2022-12-26T16:12:58.853Z,11.04
2022-12-26T16:15:27.029Z,10.94
2022-12-26T16:17:55.008Z,11.05
2022-12-26T16:20:45.499Z,10.93
2022-12-26T16:23:15.750Z,10.86
2022-12-26T16:25:47.481Z,10.91
2022-12-26T16:28:16.001Z,10.48
2022-12-26T16:30:44.158Z,10.47
2022-12-26T16:33:13.394Z,10.46
2022-12-26T16:35:43.289Z,10.21
2022-12-26T16:38:14.686Z,10.22
2022-12-26T16:40:43.866Z,10.39
2022-12-26T16:43:24.302Z,10.03
2022-12-26T16:45:53.103Z,10.13
2022-12-26T16:48:22.820Z,10.10
2022-12-26T16:50:53.582Z,10.08
2022-12-26T16:53:22.831Z,9.95
2022-12-26T16:55:52.530Z,9.61
2022-12-26T16:58:22.620Z,9.88
2022-12-26T17:00:55.884Z,9.79
2022-12-26T17:03:27.209Z,9.88
2022-12-26T17:05:57.177Z,9.89
2022-12-26T17:08:26.031Z,9.75
2022-12-26T17:10:54.336Z,9.76
2022-12-26T17:13:25.454Z,9.73
2022-12-26T17:15:54.899Z,9.47
2022-12-26T17:18:30.406Z,9.24
2022-12-26T17:21:15.941Z,9.38
2022-12-26T17:23:45.151Z,9.41
2022-12-26T17:26:24.375Z,9.41
2022-12-26T17:28:52.791Z,9.43
2022-12-26T17:31:25.331Z,9.28
2022-12-26T17:33:55.653Z,9.39
2022-12-26T17:39:20.922Z,9.18
2022-12-26T17:41:51.548Z,9.21
2022-12-26T17:44:36.498Z,9.45
2022-12-26T17:47:13.924Z,9.58
2022-12-26T17:49:42.013Z,9.70
2022-12-26T17:52:11.991Z,9.63
2022-12-26T17:54:40.170Z,9.76
2022-12-26T17:57:10.853Z,9.48
2022-12-26T17:59:38.986Z,9.59
2022-12-26T18:02:07.167Z,9.64
2022-12-26T18:04:35.259Z,9.63
2022-12-26T18:07:03.467Z,9.62
2022-12-26T18:09:35.330Z,9.70
2022-12-26T18:12:03.629Z,9.64
2022-12-26T18:14:33.711Z,9.64
2022-12-26T18:17:02.929Z,9.74
2022-12-26T18:19:31.194Z,9.54
2022-12-26T18:21:59.503Z,9.61
2022-12-26T18:24:31.051Z,9.53
2022-12-26T18:27:00.469Z,9.53
2022-12-26T18:29:28.608Z,9.52
2022-12-26T18:31:56.888Z,9.37
2022-12-26T18:34:24.905Z,9.40
2022-12-26T18:36:52.990Z,9.38
2022-12-26T18:39:21.069Z,9.25
2022-12-26T18:41:49.188Z,9.32
2022-12-26T18:44:20.530Z,9.25
2022-12-26T18:46:48.578Z,9.18
2022-12-26T18:49:17.095Z,9.09
2022-12-26T18:51:45.205Z,9.10
2022-12-26T18:54:13.320Z,9.05
2022-12-26T18:56:41.354Z,9.10
2022-12-26T18:59:10.449Z,8.99
2022-12-26T19:01:40.143Z,9.22
2022-12-26T19:04:08.388Z,9.11
2022-12-26T19:06:36.606Z,8.58
2022-12-26T19:09:04.711Z,8.29
2022-12-26T19:11:32.792Z,8.10
2022-12-26T19:14:01.094Z,8.02
2022-12-26T19:16:31.544Z,8.05
2022-12-26T19:19:01.008Z,8.19
2022-12-26T19:21:29.078Z,8.21
2022-12-26T19:23:57.194Z,8.35
2022-12-26T19:26:25.236Z,8.25
2022-12-26T19:28:53.927Z,8.29
2022-12-26T19:31:22.772Z,8.15
2022-12-26T19:33:50.843Z,8.09
2022-12-26T19:36:20.280Z,8.13
2022-12-26T19:38:48.345Z,8.10
2022-12-26T19:41:16.378Z,8.15
2022-12-26T19:43:44.388Z,8.08
2022-12-26T19:46:15.384Z,8.05
2022-12-26T19:48:43.605Z,7.98
2022-12-26T19:51:13.496Z,7.89
2022-12-26T19:53:43.759Z,7.90
2022-12-26T19:56:15.719Z,7.73
2022-12-26T19:58:44.390Z,7.74
2022-12-26T20:01:13.634Z,7.65
2022-12-26T20:03:44.447Z,7.71
2022-12-26T20:06:13.279Z,7.79
2022-12-26T20:08:41.858Z,7.77
2022-12-26T20:11:12.814Z,7.68
2022-12-26T20:13:41.069Z,7.81
2022-12-26T20:16:29.928Z,7.67
2022-12-26T20:18:58.989Z,7.72
2022-12-26T20:21:27.267Z,7.67
2022-12-26T20:23:57.367Z,7.80
2022-12-26T20:26:27.040Z,7.70
2022-12-26T20:28:57.315Z,7.79
2022-12-26T20:31:25.511Z,7.69
2022-12-26T20:33:53.864Z,7.61
2022-12-26T20:36:22.956Z,7.74
2022-12-26T20:38:51.749Z,7.63
2022-12-26T20:41:20.116Z,7.62
2022-12-26T20:43:51.939Z,7.62
2022-12-26T20:46:21.029Z,7.73
2022-12-26T20:48:49.991Z,7.57
2022-12-26T20:51:19.269Z,7.59
2022-12-26T20:53:47.282Z,7.67
2022-12-26T20:56:15.311Z,7.59
2022-12-26T20:58:43.659Z,7.69
2022-12-26T21:01:14.877Z,7.75
2022-12-26T21:03:42.956Z,7.75
2022-12-26T21:06:12.129Z,7.73
2022-12-26T21:08:41.245Z,7.89
2022-12-26T21:11:10.287Z,7.75
2022-12-26T21:13:39.062Z,7.79
2022-12-26T21:16:09.844Z,7.77
2022-12-26T21:18:39.602Z,7.86
2022-12-26T21:21:09.437Z,7.75
2022-12-26T21:23:37.673Z,7.67
2022-12-26T21:26:07.022Z,7.64
2022-12-26T21:28:35.784Z,7.67
2022-12-26T21:31:04.318Z,7.67
2022-12-26T21:33:32.982Z,7.71
2022-12-26T21:36:02.443Z,7.67
2022-12-26T21:38:31.112Z,7.78
2022-12-26T21:40:59.196Z,7.72
2022-12-26T21:43:30.482Z,7.79
2022-12-26T21:46:01.223Z,7.71
2022-12-26T21:48:30.097Z,7.65
2022-12-26T21:50:58.198Z,7.66
2022-12-26T21:53:27.595Z,7.65
2022-12-26T21:55:54.659Z,7.59
2022-12-26T21:58:22.674Z,7.58
2022-12-26T22:02:56.933Z,7.50
2022-12-26T22:05:27.428Z,7.46
2022-12-26T22:07:57.482Z,7.56
2022-12-26T22:10:44.693Z,7.51
2022-12-26T22:13:13.092Z,7.52
2022-12-26T22:16:02.540Z,7.60
2022-12-26T22:18:34.441Z,7.50
2022-12-26T22:21:04.558Z,7.39
2022-12-26T22:23:32.861Z,7.16
2022-12-26T22:26:01.350Z,7.37
2022-12-26T22:28:30.549Z,7.29
2022-12-26T22:30:59.492Z,7.43
2022-12-26T22:33:28.347Z,7.29
2022-12-26T22:36:04.975Z,7.38
2022-12-26T22:38:33.499Z,7.38
2022-12-26T22:41:02.215Z,7.44
2022-12-26T22:43:31.632Z,7.22
2022-12-26T22:46:00.016Z,7.08
2022-12-26T22:48:28.575Z,7.09
2022-12-26T22:50:58.074Z,7.23
2022-12-26T22:53:26.650Z,7.29
2022-12-26T22:55:57.682Z,7.20
2022-12-26T22:58:25.760Z,7.28
2022-12-26T23:00:54.028Z,7.28
2022-12-26T23:03:22.184Z,7.19
2022-12-26T23:05:50.933Z,7.22
2022-12-26T23:08:23.268Z,7.09
2022-12-26T23:10:53.101Z,7.04
2022-12-26T23:13:21.770Z,6.93
2022-12-26T23:15:57.240Z,7.00
2022-12-26T23:18:51.781Z,6.89
2022-12-26T23:21:39.851Z,6.66
2022-12-26T23:24:11.686Z,6.77
2022-12-26T23:26:40.242Z,6.50
2022-12-26T23:29:26.153Z,6.59
2022-12-26T23:31:54.172Z,6.50
2022-12-26T23:34:22.663Z,6.39
2022-12-26T23:36:50.691Z,6.33
2022-12-26T23:39:20.324Z,6.27
2022-12-26T23:41:48.447Z,6.25
2022-12-26T23:44:16.687Z,6.22
2022-12-26T23:46:45.417Z,6.16
2022-12-26T23:49:13.935Z,6.14
2022-12-26T23:51:41.970Z,6.04
2022-12-26T23:54:10.127Z,6.02
2022-12-26T23:56:39.491Z,5.84
2022-12-26T23:59:07.554Z,5.94
